sensor_id;sensor_type;location;lat;lon;timestamp;pressure;altitude;pressure_sealevel;temperature;humidity
12475;BME280;6302;42.624;23.334;2023-04-04T00:01:24;91862.38;;;7.69;100.00
12475;BME280;6302;42.624;23.334;2023-04-04T00:03:51;91861.91;;;7.74;100.00
12475;BME280;6302;42.624;23.334;2023-04-04T00:06:19;91864.22;;;7.72;100.00
12475;BME280;6302;42.624;23.334;2023-04-04T00:08:46;91876.22;;;7.73;100.00
12475;BME280;6302;42.624;23.334;2023-04-04T00:11:13;91872.13;;;7.72;100.00
12475;BME280;6302;42.624;23.334;2023-04-04T00:13:40;91871.53;;;7.65;100.00
12475;BME280;6302;42.624;23.334;2023-04-04T00:16:07;91881.66;;;7.66;100.00
12475;BME280;6302;42.624;23.334;2023-04-04T00:18:34;91885.97;;;7.76;100.00
12475;BME280;6302;42.624;23.334;2023-04-04T00:21:01;91890.81;;;7.78;100.00
12475;BME280;6302;42.624;23.334;2023-04-04T00:23:29;91887.25;;;7.68;100.00
12475;BME280;6302;42.624;23.334;2023-04-04T00:25:56;91886.03;;;7.73;100.00
12475;BME280;6302;42.624;23.334;2023-04-04T00:28:23;91880.03;;;7.72;100.00
12475;BME280;6302;42.624;23.334;2023-04-04T00:30:49;91877.03;;;7.70;100.00
12475;BME280;6302;42.624;23.334;2023-04-04T00:33:16;91872.50;;;7.71;100.00
12475;BME280;6302;42.624;23.334;2023-04-04T00:35:43;91866.38;;;7.77;100.00
12475;BME280;6302;42.624;23.334;2023-04-04T00:38:10;91859.81;;;7.66;100.00
12475;BME280;6302;42.624;23.334;2023-04-04T00:40:41;91863.03;;;7.73;100.00
12475;BME280;6302;42.624;23.334;2023-04-04T00:43:09;91856.03;;;7.67;100.00
12475;BME280;6302;42.624;23.334;2023-04-04T00:45:36;91857.50;;;7.68;100.00
12475;BME280;6302;42.624;23.334;2023-04-04T00:48:03;91850.81;;;7.63;100.00
12475;BME280;6302;42.624;23.334;2023-04-04T00:50:30;91845.16;;;7.65;100.00
12475;BME280;6302;42.624;23.334;2023-04-04T00:52:59;91844.31;;;7.68;100.00
12475;BME280;6302;42.624;23.334;2023-04-04T00:55:26;91840.13;;;7.70;100.00
12475;BME280;6302;42.624;23.334;2023-04-04T00:57:54;91845.19;;;7.81;100.00
12475;BME280;6302;42.624;23.334;2023-04-04T01:00:21;91847.50;;;7.79;100.00
12475;BME280;6302;42.624;23.334;2023-04-04T01:02:49;91851.41;;;7.71;100.00
12475;BME280;6302;42.624;23.334;2023-04-04T01:05:16;91854.91;;;7.84;100.00
12475;BME280;6302;42.624;23.334;2023-04-04T01:07:43;91861.16;;;7.74;100.00
12475;BME280;6302;42.624;23.334;2023-04-04T01:10:10;91853.56;;;7.76;100.00
12475;BME280;6302;42.624;23.334;2023-04-04T01:12:38;91860.69;;;7.79;100.00
12475;BME280;6302;42.624;23.334;2023-04-04T01:15:08;91856.41;;;7.85;100.00
12475;BME280;6302;42.624;23.334;2023-04-04T01:17:35;91859.53;;;7.80;100.00
12475;BME280;6302;42.624;23.334;2023-04-04T01:20:05;91861.34;;;7.83;100.00
12475;BME280;6302;42.624;23.334;2023-04-04T01:22:33;91858.84;;;7.76;100.00
12475;BME280;6302;42.624;23.334;2023-04-04T01:25:03;91853.56;;;7.76;100.00
12475;BME280;6302;42.624;23.334;2023-04-04T01:27:32;91855.22;;;7.70;100.00
12475;BME280;6302;42.624;23.334;2023-04-04T01:29:59;91855.22;;;7.70;100.00
12475;BME280;6302;42.624;23.334;2023-04-04T01:32:29;91849.94;;;7.70;100.00
12475;BME280;6302;42.624;23.334;2023-04-04T01:35:04;91839.41;;;7.70;100.00
12475;BME280;6302;42.624;23.334;2023-04-04T01:37:39;91843.00;;;7.60;100.00
12475;BME280;6302;42.624;23.334;2023-04-04T01:40:15;91848.19;;;7.63;100.00
12475;BME280;6302;42.624;23.334;2023-04-04T01:42:44;91839.88;;;7.65;100.00
12475;BME280;6302;42.624;23.334;2023-04-04T01:45:11;91842.03;;;7.70;100.00
12475;BME280;6302;42.624;23.334;2023-04-04T01:47:39;91828.59;;;7.64;100.00
12475;BME280;6302;42.624;23.334;2023-04-04T01:50:07;91815.78;;;7.63;100.00
12475;BME280;6302;42.624;23.334;2023-04-04T01:52:34;91802.63;;;7.63;100.00
12475;BME280;6302;42.624;23.334;2023-04-04T01:55:02;91804.78;;;7.68;100.00
12475;BME280;6302;42.624;23.334;2023-04-04T01:57:29;91796.47;;;7.69;100.00
12475;BME280;6302;42.624;23.334;2023-04-04T01:59:57;91804.13;;;7.64;100.00
12475;BME280;6302;42.624;23.334;2023-04-04T02:02:24;91806.84;;;7.60;100.00
12475;BME280;6302;42.624;23.334;2023-04-04T02:04:51;91799.06;;;7.53;100.00
12475;BME280;6302;42.624;23.334;2023-04-04T02:07:18;91813.72;;;7.54;100.00
12475;BME280;6302;42.624;23.334;2023-04-04T02:09:45;91811.84;;;7.55;100.00
12475;BME280;6302;42.624;23.334;2023-04-04T02:12:11;91809.38;;;7.64;100.00
12475;BME280;6302;42.624;23.334;2023-04-04T02:14:39;91810.88;;;7.65;100.00
12475;BME280;6302;42.624;23.334;2023-04-04T02:17:07;91813.53;;;7.65;100.00
12475;BME280;6302;42.624;23.334;2023-04-04T02:19:34;91810.13;;;7.64;100.00
12475;BME280;6302;42.624;23.334;2023-04-04T02:22:01;91801.81;;;7.66;100.00
12475;BME280;6302;42.624;23.334;2023-04-04T02:24:27;91803.22;;;7.70;100.00
12475;BME280;6302;42.624;23.334;2023-04-04T02:26:54;91810.63;;;7.75;100.00
12475;BME280;6302;42.624;23.334;2023-04-04T02:29:21;91812.78;;;7.80;100.00
12475;BME280;6302;42.624;23.334;2023-04-04T02:31:48;91811.22;;;7.83;100.00
12475;BME280;6302;42.624;23.334;2023-04-04T02:34:16;91811.59;;;7.85;100.00
12475;BME280;6302;42.624;23.334;2023-04-04T02:36:43;91808.19;;;7.84;100.00
12475;BME280;6302;42.624;23.334;2023-04-04T02:39:10;91811.16;;;7.86;100.00
12475;BME280;6302;42.624;23.334;2023-04-04T02:41:37;91812.72;;;7.84;100.00
12475;BME280;6302;42.624;23.334;2023-04-04T02:44:04;91813.53;;;7.81;100.00
12475;BME280;6302;42.624;23.334;2023-04-04T02:46:30;91812.72;;;7.84;100.00
12475;BME280;6302;42.624;23.334;2023-04-04T02:48:57;91813.06;;;7.86;100.00
12475;BME280;6302;42.624;23.334;2023-04-04T02:51:27;91818.34;;;7.86;100.00
12475;BME280;6302;42.624;23.334;2023-04-04T02:53:53;91823.28;;;7.84;100.00
12475;BME280;6302;42.624;23.334;2023-04-04T02:56:20;91828.47;;;7.87;100.00
12475;BME280;6302;42.624;23.334;2023-04-04T02:58:47;91827.75;;;7.87;100.00
12475;BME280;6302;42.624;23.334;2023-04-04T03:01:14;91810.50;;;7.82;100.00
12475;BME280;6302;42.624;23.334;2023-04-04T03:03:40;91820.31;;;7.82;100.00
12475;BME280;6302;42.624;23.334;2023-04-04T03:06:07;91820.31;;;7.82;100.00
12475;BME280;6302;42.624;23.334;2023-04-04T03:08:35;91822.13;;;7.85;100.00
12475;BME280;6302;42.624;23.334;2023-04-04T03:11:02;91819.13;;;7.83;100.00
12475;BME280;6302;42.624;23.334;2023-04-04T03:13:29;91822.94;;;7.82;100.00
12475;BME280;6302;42.624;23.334;2023-04-04T03:16:00;91824.78;;;7.85;100.00
12475;BME280;6302;42.624;23.334;2023-04-04T03:18:28;91819.81;;;7.87;100.00
12475;BME280;6302;42.624;23.334;2023-04-04T03:20:55;91816.59;;;7.79;100.00
12475;BME280;6302;42.624;23.334;2023-04-04T03:23:22;91810.56;;;7.79;100.00
12475;BME280;6302;42.624;23.334;2023-04-04T03:25:50;91816.50;;;7.83;100.00
12475;BME280;6302;42.624;23.334;2023-04-04T03:28:19;91818.25;;;7.90;100.00
12475;BME280;6302;42.624;23.334;2023-04-04T03:30:46;91821.63;;;7.90;100.00
12475;BME280;6302;42.624;23.334;2023-04-04T03:33:13;91824.94;;;7.94;100.00
12475;BME280;6302;42.624;23.334;2023-04-04T03:35:39;91829.00;;;7.99;100.00
12475;BME280;6302;42.624;23.334;2023-04-04T03:38:06;91826.78;;;7.97;100.00
12475;BME280;6302;42.624;23.334;2023-04-04T03:40:34;91829.72;;;7.99;100.00
12475;BME280;6302;42.624;23.334;2023-04-04T03:43:02;91825.28;;;7.96;100.00
12475;BME280;6302;42.624;23.334;2023-04-04T03:45:29;91827.91;;;7.96;100.00
12475;BME280;6302;42.624;23.334;2023-04-04T03:47:58;91825.28;;;7.96;100.00
12475;BME280;6302;42.624;23.334;2023-04-04T03:50:25;91829.72;;;7.99;100.00
12475;BME280;6302;42.624;23.334;2023-04-04T03:52:52;91829.31;;;8.01;100.00
12475;BME280;6302;42.624;23.334;2023-04-04T03:55:18;91833.84;;;8.00;100.00
12475;BME280;6302;42.624;23.334;2023-04-04T03:57:45;91829.41;;;7.97;100.00
12475;BME280;6302;42.624;23.334;2023-04-04T04:00:14;91830.38;;;8.03;100.00
12475;BME280;6302;42.624;23.334;2023-04-04T04:02:41;91833.59;;;7.95;100.00
12475;BME280;6302;42.624;23.334;2023-04-04T04:05:08;91827.59;;;7.94;100.00
12475;BME280;6302;42.624;23.334;2023-04-04T04:07:35;91835.16;;;7.92;100.00
12475;BME280;6302;42.624;23.334;2023-04-04T04:10:02;91832.84;;;7.94;100.00
12475;BME280;6302;42.624;23.334;2023-04-04T04:12:29;91835.81;;;7.96;100.00
12475;BME280;6302;42.624;23.334;2023-04-04T04:14:56;91835.81;;;7.96;100.00
12475;BME280;6302;42.624;23.334;2023-04-04T04:17:24;91836.47;;;8.00;100.00
12475;BME280;6302;42.624;23.334;2023-04-04T04:19:51;91839.47;;;8.02;100.00
12475;BME280;6302;42.624;23.334;2023-04-04T04:22:18;91833.03;;;8.03;100.00
12475;BME280;6302;42.624;23.334;2023-04-04T04:24:45;91840.13;;;8.06;100.00
12475;BME280;6302;42.624;23.334;2023-04-04T04:27:11;91840.56;;;8.05;100.00
12475;BME280;6302;42.624;23.334;2023-04-04T04:29:38;91845.41;;;8.06;100.00
12475;BME280;6302;42.624;23.334;2023-04-04T04:32:05;91848.38;;;8.08;100.00
12475;BME280;6302;42.624;23.334;2023-04-04T04:34:33;91839.38;;;8.06;100.00
12475;BME280;6302;42.624;23.334;2023-04-04T04:37:00;91855.47;;;8.11;100.00
12475;BME280;6302;42.624;23.334;2023-04-04T04:39:27;91856.94;;;8.12;100.00
12475;BME280;6302;42.624;23.334;2023-04-04T04:41:54;91855.06;;;8.13;100.00
12475;BME280;6302;42.624;23.334;2023-04-04T04:44:21;91870.06;;;8.16;100.00
12475;BME280;6302;42.624;23.334;2023-04-04T04:46:48;91860.91;;;8.20;100.00
12475;BME280;6302;42.624;23.334;2023-04-04T04:49:14;91865.38;;;8.23;100.00
12475;BME280;6302;42.624;23.334;2023-04-04T04:51:43;91873.63;;;8.25;100.00
12475;BME280;6302;42.624;23.334;2023-04-04T04:54:10;91866.75;;;8.31;100.00
12475;BME280;6302;42.624;23.334;2023-04-04T04:56:36;91867.22;;;8.42;100.00
12475;BME280;6302;42.624;23.334;2023-04-04T04:59:03;91864.00;;;8.35;100.00
12475;BME280;6302;42.624;23.334;2023-04-04T05:01:31;91873.84;;;8.34;100.00
12475;BME280;6302;42.624;23.334;2023-04-04T05:03:58;91879.66;;;8.26;100.00
12475;BME280;6302;42.624;23.334;2023-04-04T05:06:25;91882.03;;;8.20;100.00
12475;BME280;6302;42.624;23.334;2023-04-04T05:08:53;91887.16;;;8.27;100.00
12475;BME280;6302;42.624;23.334;2023-04-04T05:11:20;91890.16;;;8.29;100.00
12475;BME280;6302;42.624;23.334;2023-04-04T05:13:48;91889.69;;;8.34;100.00
12475;BME280;6302;42.624;23.334;2023-04-04T05:16:15;91885.88;;;8.35;100.00
12475;BME280;6302;42.624;23.334;2023-04-04T05:18:42;91901.53;;;8.26;100.00
12475;BME280;6302;42.624;23.334;2023-04-04T05:21:09;91899.97;;;8.29;100.00
12475;BME280;6302;42.624;23.334;2023-04-04T05:23:35;91905.16;;;8.32;100.00
12475;BME280;6302;42.624;23.334;2023-04-04T05:26:04;91907.59;;;8.23;100.00
12475;BME280;6302;42.624;23.334;2023-04-04T05:28:30;91902.19;;;8.30;100.00
12475;BME280;6302;42.624;23.334;2023-04-04T05:30:57;91909.94;;;8.37;100.00
12475;BME280;6302;42.624;23.334;2023-04-04T05:33:24;91905.69;;;8.43;100.00
12475;BME280;6302;42.624;23.334;2023-04-04T05:35:51;91906.28;;;8.51;100.00
12475;BME280;6302;42.624;23.334;2023-04-04T05:38:17;91895.63;;;8.55;100.00
12475;BME280;6302;42.624;23.334;2023-04-04T05:40:44;91902.53;;;8.65;100.00
12475;BME280;6302;42.624;23.334;2023-04-04T05:43:12;91908.09;;;8.70;100.00
12475;BME280;6302;42.624;23.334;2023-04-04T05:45:39;91913.94;;;8.78;100.00
12475;BME280;6302;42.624;23.334;2023-04-04T05:48:06;91913.34;;;8.86;100.00
12475;BME280;6302;42.624;23.334;2023-04-04T05:50:33;91915.44;;;8.95;100.00
12475;BME280;6302;42.624;23.334;2023-04-04T05:53:00;91919.72;;;9.05;100.00
12475;BME280;6302;42.624;23.334;2023-04-04T05:55:27;91919.38;;;9.03;100.00
12475;BME280;6302;42.624;23.334;2023-04-04T05:57:54;91920.69;;;9.11;100.00
12475;BME280;6302;42.624;23.334;2023-04-04T06:00:22;91925.16;;;9.14;100.00
12475;BME280;6302;42.624;23.334;2023-04-04T06:02:49;91920.69;;;9.11;100.00
12475;BME280;6302;42.624;23.334;2023-04-04T06:05:17;91920.63;;;8.98;100.00
12475;BME280;6302;42.624;23.334;2023-04-04T06:07:44;91921.13;;;8.93;100.00
12475;BME280;6302;42.624;23.334;2023-04-04T06:10:11;91924.84;;;8.96;100.00
12475;BME280;6302;42.624;23.334;2023-04-04T06:12:38;91930.13;;;8.96;100.00
12475;BME280;6302;42.624;23.334;2023-04-04T06:15:06;91935.41;;;8.96;100.00
12475;BME280;6302;42.624;23.334;2023-04-04T06:17:36;91934.25;;;8.97;100.00
12475;BME280;6302;42.624;23.334;2023-04-04T06:20:04;91928.28;;;9.09;100.00
12475;BME280;6302;42.624;23.334;2023-04-04T06:22:31;91930.34;;;9.18;100.00
12475;BME280;6302;42.624;23.334;2023-04-04T06:24:59;91931.25;;;9.27;100.00
12475;BME280;6302;42.624;23.334;2023-04-04T06:27:26;91927.28;;;9.35;100.00
12475;BME280;6302;42.624;23.334;2023-04-04T06:29:53;91938.91;;;9.38;100.00
12475;BME280;6302;42.624;23.334;2023-04-04T06:32:20;91935.19;;;9.35;100.00
12475;BME280;6302;42.624;23.334;2023-04-04T06:34:49;91947.44;;;9.29;100.00
12475;BME280;6302;42.624;23.334;2023-04-04T06:37:15;91952.22;;;9.34;100.00
12475;BME280;6302;42.624;23.334;2023-04-04T06:42:17;91949.69;;;9.14;100.00
12475;BME280;6302;42.624;23.334;2023-04-04T06:44:44;91961.56;;;9.06;100.00
12475;BME280;6302;42.624;23.334;2023-04-04T06:47:11;91971.56;;;8.99;100.00
12475;BME280;6302;42.624;23.334;2023-04-04T06:49:38;91968.00;;;8.89;100.00
12475;BME280;6302;42.624;23.334;2023-04-04T06:52:06;91967.91;;;8.77;100.00
12475;BME280;6302;42.624;23.334;2023-04-04T06:54:33;91972.38;;;8.64;100.00
12475;BME280;6302;42.624;23.334;2023-04-04T06:57:00;91980.47;;;7.98;100.00
12475;BME280;6302;42.624;23.334;2023-04-04T06:59:27;91983.75;;;7.43;100.00
12475;BME280;6302;42.624;23.334;2023-04-04T07:01:54;91992.72;;;7.26;100.00
12475;BME280;6302;42.624;23.334;2023-04-04T07:04:22;92003.66;;;6.74;100.00
12475;BME280;6302;42.624;23.334;2023-04-04T07:06:50;92015.03;;;6.68;100.00
12475;BME280;6302;42.624;23.334;2023-04-04T07:09:18;92018.56;;;6.27;100.00
12475;BME280;6302;42.624;23.334;2023-04-04T07:11:45;92027.28;;;6.21;100.00
12475;BME280;6302;42.624;23.334;2023-04-04T07:14:12;92042.09;;;6.08;100.00
12475;BME280;6302;42.624;23.334;2023-04-04T07:16:39;92038.50;;;5.95;100.00
12475;BME280;6302;42.624;23.334;2023-04-04T07:19:05;92042.00;;;5.84;100.00
12475;BME280;6302;42.624;23.334;2023-04-04T07:21:32;92052.97;;;5.72;100.00
12475;BME280;6302;42.624;23.334;2023-04-04T07:23:59;92051.56;;;5.61;100.00
12475;BME280;6302;42.624;23.334;2023-04-04T07:26:28;92054.00;;;5.41;100.00
12475;BME280;6302;42.624;23.334;2023-04-04T07:28:55;92069.41;;;5.43;100.00
12475;BME280;6302;42.624;23.334;2023-04-04T07:31:21;92069.69;;;5.48;100.00
12475;BME280;6302;42.624;23.334;2023-04-04T07:33:48;92067.44;;;5.50;100.00
12475;BME280;6302;42.624;23.334;2023-04-04T07:36:18;92066.00;;;5.42;100.00
12475;BME280;6302;42.624;23.334;2023-04-04T07:38:45;92075.13;;;5.31;100.00
12475;BME280;6302;42.624;23.334;2023-04-04T07:41:12;92080.91;;;5.08;100.00
12475;BME280;6302;42.624;23.334;2023-04-04T07:43:40;92074.84;;;5.18;100.00
12475;BME280;6302;42.624;23.334;2023-04-04T07:46:07;92085.41;;;5.11;100.00
12475;BME280;6302;42.624;23.334;2023-04-04T07:48:33;92087.34;;;5.00;100.00
12475;BME280;6302;42.624;23.334;2023-04-04T07:51:01;92091.13;;;4.92;100.00
12475;BME280;6302;42.624;23.334;2023-04-04T07:53:28;92079.97;;;4.77;100.00
12475;BME280;6302;42.624;23.334;2023-04-04T07:55:55;92095.38;;;4.75;100.00
12475;BME280;6302;42.624;23.334;2023-04-04T07:58:22;92107.81;;;4.64;100.00
12475;BME280;6302;42.624;23.334;2023-04-04T08:00:50;92102.56;;;4.60;100.00
12475;BME280;6302;42.624;23.334;2023-04-04T08:03:17;92113.09;;;4.53;100.00
12475;BME280;6302;42.624;23.334;2023-04-04T08:05:44;92111.66;;;4.38;100.00
12475;BME280;6302;42.624;23.334;2023-04-04T08:08:10;92114.69;;;4.33;100.00
12475;BME280;6302;42.624;23.334;2023-04-04T08:10:38;92122.16;;;4.35;100.00
12475;BME280;6302;42.624;23.334;2023-04-04T08:13:04;92115.44;;;4.30;100.00
12475;BME280;6302;42.624;23.334;2023-04-04T08:15:33;92121.84;;;4.19;100.00
12475;BME280;6302;42.624;23.334;2023-04-04T08:18:01;92120.31;;;4.25;100.00
12475;BME280;6302;42.624;23.334;2023-04-04T08:20:28;92127.47;;;4.24;100.00
12475;BME280;6302;42.624;23.334;2023-04-04T08:22:55;92134.56;;;4.20;100.00
12475;BME280;6302;42.624;23.334;2023-04-04T08:25:23;92142.41;;;4.27;100.00
12475;BME280;6302;42.624;23.334;2023-04-04T08:27:50;92147.66;;;4.27;100.00
12475;BME280;6302;42.624;23.334;2023-04-04T08:30:17;92133.78;;;4.30;100.00
12475;BME280;6302;42.624;23.334;2023-04-04T08:32:44;92141.69;;;4.27;100.00
12475;BME280;6302;42.624;23.334;2023-04-04T08:35:13;92152.53;;;4.25;100.00
12475;BME280;6302;42.624;23.334;2023-04-04T08:37:43;92148.81;;;4.16;100.00
12475;BME280;6302;42.624;23.334;2023-04-04T08:40:10;92143.19;;;4.21;100.00
12475;BME280;6302;42.624;23.334;2023-04-04T08:42:39;92150.66;;;4.26;100.00
12475;BME280;6302;42.624;23.334;2023-04-04T08:45:08;92148.09;;;4.12;100.00
12475;BME280;6302;42.624;23.334;2023-04-04T08:47:37;92157.84;;;3.93;100.00
12475;BME280;6302;42.624;23.334;2023-04-04T08:50:06;92156.00;;;3.80;100.00
12475;BME280;6302;42.624;23.334;2023-04-04T08:52:35;92164.22;;;3.89;100.00
12475;BME280;6302;42.624;23.334;2023-04-04T08:55:04;92172.47;;;3.91;100.00
12475;BME280;6302;42.624;23.334;2023-04-04T08:57:31;92164.97;;;3.75;100.00
12475;BME280;6302;42.624;23.334;2023-04-04T08:59:58;92169.47;;;3.82;100.00
12475;BME280;6302;42.624;23.334;2023-04-04T09:02:29;92170.97;;;3.83;100.00
12475;BME280;6302;42.624;23.334;2023-04-04T09:05:00;92177.72;;;3.77;100.00
12475;BME280;6302;42.624;23.334;2023-04-04T09:07:27;92171.75;;;3.80;100.00
12475;BME280;6302;42.624;23.334;2023-04-04T09:09:57;92180.31;;;3.80;100.00
12475;BME280;6302;42.624;23.334;2023-04-04T09:12:25;92166.50;;;3.80;100.00
12475;BME280;6302;42.624;23.334;2023-04-04T09:14:54;92169.84;;;3.80;100.00
12475;BME280;6302;42.624;23.334;2023-04-04T09:17:22;92175.47;;;3.86;100.00
12475;BME280;6302;42.624;23.334;2023-04-04T09:19:48;92173.97;;;3.78;100.00
12475;BME280;6302;42.624;23.334;2023-04-04T09:22:16;92176.97;;;3.66;100.00
12475;BME280;6302;42.624;23.334;2023-04-04T09:24:43;92178.47;;;3.63;100.00
12475;BME280;6302;42.624;23.334;2023-04-04T09:27:11;92184.47;;;3.67;100.00
12475;BME280;6302;42.624;23.334;2023-04-04T09:29:42;92187.06;;;3.57;100.00
12475;BME280;6302;42.624;23.334;2023-04-04T09:32:09;92187.06;;;3.57;100.00
12475;BME280;6302;42.624;23.334;2023-04-04T09:34:36;92189.31;;;3.62;100.00
12475;BME280;6302;42.624;23.334;2023-04-04T09:37:03;92191.56;;;3.60;100.00
12475;BME280;6302;42.624;23.334;2023-04-04T09:39:31;92187.81;;;3.61;100.00
12475;BME280;6302;42.624;23.334;2023-04-04T09:42:00;92188.94;;;3.81;100.00
12475;BME280;6302;42.624;23.334;2023-04-04T09:44:28;92189.31;;;3.86;100.00
12475;BME280;6302;42.624;23.334;2023-04-04T09:47:23;92184.44;;;3.78;100.00
12475;BME280;6302;42.624;23.334;2023-04-04T09:49:50;92183.72;;;3.74;100.00
12475;BME280;6302;42.624;23.334;2023-04-04T09:52:17;92198.66;;;3.91;100.00
12475;BME280;6302;42.624;23.334;2023-04-04T09:54:45;92183.34;;;3.79;100.00
12475;BME280;6302;42.624;23.334;2023-04-04T09:57:20;92178.47;;;3.81;100.00
12475;BME280;6302;42.624;23.334;2023-04-04T09:59:48;92184.44;;;3.99;100.00
12475;BME280;6302;42.624;23.334;2023-04-04T10:02:15;92191.94;;;3.97;100.00
12475;BME280;6302;42.624;23.334;2023-04-04T10:04:43;92190.78;;;3.98;100.00
12475;BME280;6302;42.624;23.334;2023-04-04T10:07:11;92196.06;;;3.84;100.00
12475;BME280;6302;42.624;23.334;2023-04-04T10:09:38;92188.94;;;3.81;100.00
12475;BME280;6302;42.624;23.334;2023-04-04T10:12:09;92205.78;;;3.87;100.00
12475;BME280;6302;42.624;23.334;2023-04-04T10:14:36;92203.16;;;3.94;100.00
12475;BME280;6302;42.624;23.334;2023-04-04T10:17:08;92201.63;;;4.00;100.00
12475;BME280;6302;42.624;23.334;2023-04-04T10:19:36;92209.88;;;4.13;100.00
12475;BME280;6302;42.624;23.334;2023-04-04T10:22:04;92213.59;;;4.26;100.00
12475;BME280;6302;42.624;23.334;2023-04-04T10:24:31;92217.75;;;4.16;100.00
12475;BME280;6302;42.624;23.334;2023-04-04T10:26:58;92236.09;;;3.88;100.00
12475;BME280;6302;42.624;23.334;2023-04-04T10:29:25;92227.13;;;3.82;100.00
12475;BME280;6302;42.624;23.334;2023-04-04T10:31:56;92233.47;;;3.81;100.00
12475;BME280;6302;42.624;23.334;2023-04-04T10:34:31;92234.25;;;3.92;100.00
12475;BME280;6302;42.624;23.334;2023-04-04T10:37:07;92251.81;;;3.95;100.00
12475;BME280;6302;42.624;23.334;2023-04-04T10:39:37;92237.59;;;3.89;100.00
12475;BME280;6302;42.624;23.334;2023-04-04T10:42:05;92241.72;;;3.83;100.00
12475;BME280;6302;42.624;23.334;2023-04-04T10:44:34;92249.22;;;3.77;100.00
12475;BME280;6302;42.624;23.334;2023-04-04T10:47:07;92242.09;;;3.81;100.00
12475;BME280;6302;42.624;23.334;2023-04-04T10:49:37;92255.19;;;3.71;100.00
12475;BME280;6302;42.624;23.334;2023-04-04T10:52:05;92247.69;;;3.73;100.00
12475;BME280;6302;42.624;23.334;2023-04-04T10:54:33;92245.06;;;3.66;100.00
12475;BME280;6302;42.624;23.334;2023-04-04T10:57:00;92251.06;;;3.73;100.00
12475;BME280;6302;42.624;23.334;2023-04-04T10:59:28;92247.72;;;3.62;100.00
12475;BME280;6302;42.624;23.334;2023-04-04T11:01:56;92247.69;;;3.66;100.00
12475;BME280;6302;42.624;23.334;2023-04-04T11:04:31;92251.81;;;3.67;100.00
12475;BME280;6302;42.624;23.334;2023-04-04T11:07:18;92261.56;;;3.77;100.00
12475;BME280;6302;42.624;23.334;2023-04-04T11:09:53;92265.69;;;3.67;100.00
12475;BME280;6302;42.624;23.334;2023-04-04T11:12:21;92269.03;;;3.61;100.00
12475;BME280;6302;42.624;23.334;2023-04-04T11:15:06;92267.50;;;3.46;100.00
12475;BME280;6302;42.624;23.334;2023-04-04T11:17:58;92267.13;;;3.44;100.00
12475;BME280;6302;42.624;23.334;2023-04-04T11:20:30;92270.13;;;3.46;100.00
12475;BME280;6302;42.624;23.334;2023-04-04T11:23:03;92276.13;;;3.50;100.00
12475;BME280;6302;42.624;23.334;2023-04-04T11:25:31;92270.88;;;3.53;100.00
12475;BME280;6302;42.624;23.334;2023-04-04T11:28:04;92281.72;;;3.45;100.00
12475;BME280;6302;42.624;23.334;2023-04-04T11:30:36;92269.38;;;3.42;100.00
12475;BME280;6302;42.624;23.334;2023-04-04T11:33:03;92278.00;;;3.53;100.00
12475;BME280;6302;42.624;23.334;2023-04-04T11:35:30;92280.97;;;3.44;100.00
12475;BME280;6302;42.624;23.334;2023-04-04T11:37:58;92288.06;;;3.44;100.00
12475;BME280;6302;42.624;23.334;2023-04-04T11:40:37;92277.97;;;3.46;100.00
12475;BME280;6302;42.624;23.334;2023-04-04T11:43:09;92278.38;;;3.48;100.00
12475;BME280;6302;42.624;23.334;2023-04-04T11:45:37;92267.06;;;3.26;100.00
12475;BME280;6302;42.624;23.334;2023-04-04T11:48:09;92280.94;;;3.34;100.00
12475;BME280;6302;42.624;23.334;2023-04-04T11:50:38;92292.56;;;3.33;100.00
12475;BME280;6302;42.624;23.334;2023-04-04T11:53:06;92267.84;;;3.26;100.00
12475;BME280;6302;42.624;23.334;2023-04-04T11:55:40;92281.69;;;3.27;100.00
12475;BME280;6302;42.624;23.334;2023-04-04T11:58:09;92291.00;;;3.21;100.00
12475;BME280;6302;42.624;23.334;2023-04-04T12:00:36;92281.66;;;3.23;100.00
12475;BME280;6302;42.624;23.334;2023-04-04T12:03:05;92280.53;;;3.17;100.00
12475;BME280;6302;42.624;23.334;2023-04-04T12:05:33;92276.81;;;3.18;100.00
12475;BME280;6302;42.624;23.334;2023-04-04T12:08:00;92277.19;;;3.24;100.00
12475;BME280;6302;42.624;23.334;2023-04-04T12:10:29;92283.91;;;3.18;100.00
12475;BME280;6302;42.624;23.334;2023-04-04T12:12:59;92279.03;;;3.20;100.00
12475;BME280;6302;42.624;23.334;2023-04-04T12:15:27;92277.19;;;3.27;100.00
12475;BME280;6302;42.624;23.334;2023-04-04T12:17:54;92281.63;;;3.16;100.00
12475;BME280;6302;42.624;23.334;2023-04-04T12:20:22;92279.03;;;3.16;100.00
12475;BME280;6302;42.624;23.334;2023-04-04T12:22:49;92277.91;;;3.17;100.00
12475;BME280;6302;42.624;23.334;2023-04-04T12:25:18;92283.84;;;3.00;100.00
12475;BME280;6302;42.624;23.334;2023-04-04T12:27:47;92291.31;;;2.98;100.00
12475;BME280;6302;42.624;23.334;2023-04-04T12:30:16;92290.56;;;2.98;100.00
12475;BME280;6302;42.624;23.334;2023-04-04T12:32:47;92292.06;;;3.02;100.00
12475;BME280;6302;42.624;23.334;2023-04-04T12:35:15;92303.94;;;2.82;100.00
12475;BME280;6302;42.624;23.334;2023-04-04T12:37:58;92295.69;;;2.77;100.00
12475;BME280;6302;42.624;23.334;2023-04-04T12:40:31;92318.41;;;2.62;100.00
12475;BME280;6302;42.624;23.334;2023-04-04T12:43:02;92271.56;;;2.36;100.00
12475;BME280;6302;42.624;23.334;2023-04-04T12:45:31;92291.78;;;2.46;100.00
12475;BME280;6302;42.624;23.334;2023-04-04T12:47:58;92294.47;;;2.56;100.00
12475;BME280;6302;42.624;23.334;2023-04-04T12:50:26;92282.50;;;2.55;100.00
12475;BME280;6302;42.624;23.334;2023-04-04T12:52:53;92304.94;;;2.60;100.00
12475;BME280;6302;42.624;23.334;2023-04-04T12:55:21;92300.50;;;2.64;100.00
12475;BME280;6302;42.624;23.334;2023-04-04T12:57:49;92305.66;;;2.57;100.00
12475;BME280;6302;42.624;23.334;2023-04-04T13:00:19;92306.41;;;2.57;100.00
12475;BME280;6302;42.624;23.334;2023-04-04T13:02:49;92310.16;;;2.56;100.00
12475;BME280;6302;42.624;23.334;2023-04-04T13:05:17;92315.78;;;2.58;100.00
12475;BME280;6302;42.624;23.334;2023-04-04T13:07:46;92316.81;;;2.47;100.00